Time;durP1;ratioP1;P1;durP2;ratioP2;P2;SDS_P1;SDS_P2;PMS_P1;PMS_P2;Temp;Humidity;BMP_temperature;BMP_pressure;BME280_temperature;BME280_humidity;BME280_pressure;Samples;Min_cycle;Max_cycle;Signal;HPM_P1;HPM_P2
2021/01/05 00:03:11;;;;;;;9.50;7.80;;;2.60;99.90;;;;;;5962252;23;20167;-82
2021/01/05 00:05:37;;;;;;;9.18;7.70;;;2.60;99.90;;;;;;6232607;23;20621;-82
2021/01/05 00:08:03;;;;;;;7.28;6.57;;;2.70;99.90;;;;;;6232907;23;20201;-82
2021/01/05 00:10:30;;;;;;;8.82;7.47;;;2.70;99.90;;;;;;6233116;23;20210;-81
2021/01/05 00:12:56;;;;;;;7.95;7.10;;;2.70;99.90;;;;;;6231834;23;20182;-82
2021/01/05 00:15:22;;;;;;;8.50;6.63;;;2.70;99.90;;;;;;6232294;23;20182;-82
2021/01/05 00:17:50;;;;;;;8.43;7.60;;;2.80;99.90;;;;;;6232398;23;20261;-82
2021/01/05 00:20:20;;;;;;;9.65;6.95;;;2.80;99.90;;;;;;6233036;23;20185;-82
2021/01/05 00:22:46;;;;;;;13.85;8.75;;;2.80;99.90;;;;;;6232664;23;20166;-82
2021/01/05 00:25:15;;;;;;;8.10;7.30;;;2.80;99.90;;;;;;6232372;23;20189;-82
2021/01/05 00:27:41;;;;;;;9.65;7.68;;;2.80;99.90;;;;;;6232725;23;20209;-82
2021/01/05 00:30:14;;;;;;;9.93;7.78;;;2.80;99.90;;;;;;6261798;23;20201;-82
2021/01/05 00:32:42;;;;;;;12.07;8.77;;;2.80;99.90;;;;;;6266147;23;20178;-81
2021/01/05 00:35:11;;;;;;;9.73;8.82;;;2.90;99.90;;;;;;6268242;23;20192;-81
2021/01/05 00:37:38;;;;;;;13.27;9.23;;;2.80;99.90;;;;;;6268639;23;20227;-81
2021/01/05 00:40:06;;;;;;;10.80;8.00;;;2.80;99.90;;;;;;6269563;23;20181;-82
2021/01/05 00:42:32;;;;;;;14.05;9.82;;;2.80;99.90;;;;;;6268791;23;20191;-82
2021/01/05 00:44:58;;;;;;;15.77;10.07;;;2.70;99.90;;;;;;6268460;23;20252;-81
2021/01/05 00:47:24;;;;;;;10.88;9.10;;;2.70;99.90;;;;;;6268464;23;20250;-81
2021/01/05 00:49:51;;;;;;;12.73;10.15;;;2.70;99.90;;;;;;6268567;23;20173;-82
2021/01/05 00:52:17;;;;;;;14.50;11.00;;;2.70;99.90;;;;;;6269705;23;20212;-82
2021/01/05 00:54:44;;;;;;;15.82;11.70;;;2.60;99.90;;;;;;6265404;23;20537;-82
2021/01/05 00:57:11;;;;;;;15.15;11.93;;;2.50;99.90;;;;;;6266123;23;20205;-82
2021/01/05 00:59:39;;;;;;;14.40;9.63;;;2.40;99.90;;;;;;6266319;23;20238;-82
2021/01/05 01:02:06;;;;;;;14.30;11.10;;;2.30;99.90;;;;;;6266503;23;20686;-82
2021/01/05 01:04:33;;;;;;;15.15;10.70;;;2.30;99.90;;;;;;6266642;23;20181;-82
2021/01/05 01:07:00;;;;;;;10.48;9.30;;;2.30;99.90;;;;;;6266506;23;20362;-82
2021/01/05 01:09:26;;;;;;;14.23;9.35;;;2.30;99.90;;;;;;6266218;23;20187;-82
2021/01/05 01:12:01;;;;;;;14.35;11.57;;;2.30;99.90;;;;;;6265584;23;20277;-82
2021/01/05 01:14:30;;;;;;;11.15;9.43;;;2.30;99.90;;;;;;6266072;23;20175;-82
2021/01/05 01:16:57;;;;;;;17.27;11.55;;;2.40;99.90;;;;;;6265965;23;20476;-82
2021/01/05 01:19:25;;;;;;;16.58;10.38;;;2.40;99.90;;;;;;6266054;23;20177;-82
2021/01/05 01:21:55;;;;;;;13.90;10.88;;;2.40;99.90;;;;;;6265792;23;20184;-82
2021/01/05 01:24:25;;;;;;;15.60;11.27;;;2.40;99.90;;;;;;6266022;23;20204;-82
2021/01/05 01:26:52;;;;;;;11.85;9.05;;;2.40;99.90;;;;;;6265913;23;20276;-82
2021/01/05 01:29:20;;;;;;;17.25;13.18;;;2.50;99.90;;;;;;6266208;23;20215;-82
2021/01/05 01:31:47;;;;;;;14.40;11.15;;;2.50;99.90;;;;;;6266213;23;20227;-82
2021/01/05 01:34:15;;;;;;;16.90;11.88;;;2.50;99.90;;;;;;6266226;23;20181;-82
2021/01/05 01:36:42;;;;;;;15.18;12.57;;;2.50;99.90;;;;;;6267030;23;20185;-82
2021/01/05 01:39:08;;;;;;;14.45;10.52;;;2.40;99.90;;;;;;6266290;23;20231;-82
2021/01/05 01:41:35;;;;;;;17.38;10.98;;;2.50;99.90;;;;;;6267199;23;20235;-82
2021/01/05 01:44:02;;;;;;;13.00;11.13;;;2.50;99.90;;;;;;6266260;23;20169;-82
2021/01/05 01:46:34;;;;;;;16.20;11.45;;;2.50;99.90;;;;;;6267223;23;20188;-82
2021/01/05 01:49:01;;;;;;;14.95;10.35;;;2.50;99.90;;;;;;6266480;23;20165;-82
2021/01/05 01:51:31;;;;;;;15.05;9.95;;;2.50;99.90;;;;;;6266957;23;20203;-82
2021/01/05 01:54:21;;;;;;;13.30;9.27;;;2.40;99.90;;;;;;6266737;23;20177;-82
2021/01/05 01:57:26;;;;;;;13.20;11.00;;;2.40;99.90;;;;;;6266908;23;20212;-82
2021/01/05 02:00:09;;;;;;;16.52;11.50;;;2.50;99.90;;;;;;6251488;23;20251;-82
2021/01/05 02:02:59;;;;;;;15.48;12.13;;;2.50;99.90;;;;;;6267183;23;20166;-82
2021/01/05 02:05:32;;;;;;;14.55;10.80;;;2.60;99.90;;;;;;6266958;23;20172;-82
2021/01/05 02:08:22;;;;;;;13.63;9.10;;;2.60;99.90;;;;;;6266200;23;20208;-83
2021/01/05 02:11:10;;;;;;;15.70;13.35;;;2.60;99.90;;;;;;6267185;23;20229;-82
2021/01/05 02:14:11;;;;;;;;;;;;;;;;;;;;;
2021/01/05 02:17:05;;;;;;;16.17;12.20;;;2.70;99.90;;;;;;6253074;23;20182;-82
2021/01/05 02:19:39;;;;;;;17.85;10.82;;;2.70;99.90;;;;;;6216973;23;20178;-82
2021/01/05 02:22:13;;;;;;;13.00;8.48;;;2.70;99.90;;;;;;6268053;23;20217;-82
2021/01/05 02:24:45;;;;;;;14.05;10.48;;;2.70;99.90;;;;;;6267663;23;20191;-82
2021/01/05 02:27:13;;;;;;;10.88;9.85;;;2.70;99.90;;;;;;6267707;23;20467;-82
2021/01/05 02:29:52;;;;;;;15.63;11.65;;;2.70;99.90;;;;;;6267527;23;20189;-82
2021/01/05 02:32:41;;;;;;;15.50;10.60;;;2.70;99.90;;;;;;6267634;23;20743;-82
2021/01/05 02:35:22;;;;;;;16.17;11.95;;;2.70;99.90;;;;;;6268028;23;20216;-82
2021/01/05 02:38:04;;;;;;;12.57;9.85;;;2.70;99.90;;;;;;6267520;23;20226;-82
2021/01/05 02:40:54;;;;;;;12.93;9.65;;;2.70;99.90;;;;;;6267506;23;20217;-82
2021/01/05 02:43:42;;;;;;;12.70;9.43;;;2.60;99.90;;;;;;6267372;23;20196;-82
2021/01/05 02:46:34;;;;;;;14.82;11.43;;;2.60;99.90;;;;;;6268233;23;20166;-82
2021/01/05 02:49:11;;;;;;;13.43;10.65;;;2.50;99.90;;;;;;6268139;23;20181;-82
2021/01/05 02:52:14;;;;;;;14.20;11.88;;;2.50;99.90;;;;;;6268306;23;20185;-82
2021/01/05 02:55:09;;;;;;;11.35;9.32;;;2.50;99.90;;;;;;6267157;23;20222;-82
2021/01/05 02:57:59;;;;;;;14.27;10.20;;;2.40;99.90;;;;;;6268035;23;20198;-82
2021/01/05 03:01:05;;;;;;;13.05;9.38;;;2.40;99.90;;;;;;6268310;23;20173;-82
2021/01/05 03:03:43;;;;;;;19.60;12.70;;;2.40;99.90;;;;;;6267294;23;20216;-82
2021/01/05 03:06:23;;;;;;;17.33;12.50;;;2.30;99.90;;;;;;6267980;23;20165;-82
2021/01/05 03:09:26;;;;;;;21.55;11.80;;;2.30;99.90;;;;;;6268017;23;20176;-83
2021/01/05 03:12:07;;;;;;;19.42;13.57;;;2.30;99.90;;;;;;6267325;23;20200;-82
2021/01/05 03:14:44;;;;;;;16.60;13.05;;;2.20;99.90;;;;;;6267275;23;20165;-82
2021/01/05 03:17:24;;;;;;;20.92;14.02;;;2.10;99.90;;;;;;6268082;23;20200;-82
2021/01/05 03:20:01;;;;;;;17.15;11.00;;;2.10;99.90;;;;;;6267455;23;20257;-82
2021/01/05 03:22:31;;;;;;;16.83;12.43;;;2.10;99.90;;;;;;6265832;23;20186;-82
2021/01/05 03:25:01;;;;;;;20.48;13.70;;;2.10;99.90;;;;;;6266744;23;20181;-82
2021/01/05 03:27:28;;;;;;;16.77;12.25;;;2.10;99.90;;;;;;6268299;23;20264;-82
2021/01/05 03:30:03;;;;;;;19.90;14.30;;;2.00;99.90;;;;;;6267658;23;20185;-82
2021/01/05 03:32:32;;;;;;;17.63;12.95;;;2.00;99.90;;;;;;6266733;23;20562;-82
2021/01/05 03:34:58;;;;;;;18.30;14.38;;;2.00;99.90;;;;;;6268476;23;20181;-82
2021/01/05 03:37:24;;;;;;;21.70;14.70;;;2.00;99.90;;;;;;6266914;23;20235;-82
2021/01/05 03:39:53;;;;;;;24.33;14.57;;;2.00;99.90;;;;;;6267419;23;20214;-82
2021/01/05 03:42:19;;;;;;;23.67;15.43;;;1.90;99.90;;;;;;6267169;23;20229;-82
2021/01/05 03:44:45;;;;;;;21.77;15.38;;;1.90;99.90;;;;;;6267435;23;20236;-82
2021/01/05 03:47:16;;;;;;;26.98;15.77;;;2.00;99.90;;;;;;6265297;23;20201;-83
2021/01/05 03:49:46;;;;;;;20.02;11.48;;;1.90;99.90;;;;;;6251848;23;20172;-84
2021/01/05 03:52:24;;;;;;;;;;;;;;;;;;;;;
2021/01/05 04:45:19;;;;;;;25.20;16.35;;;2.40;99.90;;;;;;5875749;24;20194;-83
2021/01/05 04:47:58;;;;;;;27.70;19.45;;;2.30;99.90;;;;;;6193764;23;20197;-84
2021/01/05 04:50:34;;;;;;;28.50;18.35;;;2.30;99.90;;;;;;6225390;23;20154;-85
2021/01/05 04:53:16;;;;;;;30.15;18.70;;;2.30;99.90;;;;;;6224831;23;20169;-85
2021/01/05 04:55:54;;;;;;;29.65;18.20;;;2.30;99.90;;;;;;6225911;23;20166;-85
2021/01/05 04:58:28;;;;;;;27.08;17.02;;;2.30;99.90;;;;;;6225121;23;20205;-85
2021/01/05 05:01:24;;;;;;;25.50;16.48;;;2.40;99.90;;;;;;6225154;23;20163;-84
2021/01/05 05:04:17;;;;;;;23.15;16.60;;;2.40;99.90;;;;;;6229958;23;20162;-82
2021/01/05 05:06:49;;;;;;;26.42;19.40;;;2.40;99.90;;;;;;6236463;23;20166;-82
2021/01/05 05:09:34;;;;;;;28.33;18.20;;;2.40;99.90;;;;;;6236894;23;20545;-82
2021/01/05 05:12:22;;;;;;;30.45;18.60;;;2.50;99.90;;;;;;6236484;23;20197;-82
2021/01/05 05:14:57;;;;;;;26.38;17.30;;;2.50;99.90;;;;;;6237578;23;20196;-82
2021/01/05 05:17:57;;;;;;;26.13;19.77;;;2.30;99.90;;;;;;6236868;23;20267;-82
2021/01/05 05:20:39;;;;;;;21.23;17.33;;;2.30;99.90;;;;;;6236391;23;20222;-82
2021/01/05 05:23:30;;;;;;;26.63;16.27;;;2.40;99.90;;;;;;6237100;23;20166;-82
2021/01/05 05:26:06;;;;;;;26.77;17.42;;;2.30;99.90;;;;;;6236750;23;20201;-82
2021/01/05 05:28:40;;;;;;;25.50;17.92;;;2.20;99.90;;;;;;6245240;23;20209;-82
2021/01/05 05:31:26;;;;;;;22.30;17.90;;;2.00;99.90;;;;;;6266760;23;20231;-82
2021/01/05 05:33:58;;;;;;;26.80;17.08;;;2.00;99.90;;;;;;6267312;23;20169;-82
2021/01/05 05:36:56;;;;;;;25.30;16.95;;;2.20;99.90;;;;;;6266363;23;20170;-83
2021/01/05 05:43:01;;;;;;;26.58;17.90;;;2.20;99.90;;;;;;6064445;23;20650;-82
2021/01/05 05:45:36;;;;;;;27.85;17.90;;;2.20;99.90;;;;;;6248450;23;20177;-82
2021/01/05 05:48:20;;;;;;;;;;;;;;;;;;;;;
2021/01/05 06:03:50;;;;;;;29.17;19.87;;;2.20;99.90;;;;;;5951030;23;20172;-82
2021/01/05 06:06:19;;;;;;;25.25;19.23;;;2.20;99.90;;;;;;6116347;23;20179;-83
2021/01/05 06:09:03;;;;;;;;;;;;;;;;;;;;;
2021/01/05 08:31:22;;;;;;;;;;;;;;;;;;;;;
2021/01/05 08:37:25;;;;;;;22.17;16.33;;;2.40;99.90;;;;;;5897396;23;20212;-82
2021/01/05 08:39:51;;;;;;;23.63;18.35;;;2.40;99.90;;;;;;6076684;23;20668;-82
2021/01/05 08:42:22;;;;;;;24.02;14.80;;;2.30;99.90;;;;;;6101116;23;20197;-81
2021/01/05 08:45:07;;;;;;;20.00;15.00;;;2.30;99.90;;;;;;6099914;23;20296;-82
2021/01/05 08:47:38;;;;;;;24.65;17.00;;;2.40;99.90;;;;;;6099594;23;20229;-81
2021/01/05 08:50:20;;;;;;;25.48;16.55;;;2.40;99.90;;;;;;6100070;23;20169;-82
2021/01/05 08:52:48;;;;;;;19.60;16.58;;;2.60;99.90;;;;;;6100293;23;20196;-82
2021/01/05 08:55:20;;;;;;;21.75;16.58;;;2.60;99.90;;;;;;6099314;23;20185;-82
2021/01/05 08:57:50;;;;;;;21.83;16.73;;;2.80;99.90;;;;;;6100045;23;20279;-81
2021/01/05 09:00:18;;;;;;;25.20;17.05;;;2.90;99.90;;;;;;6099531;23;20176;-81
2021/01/05 09:02:44;;;;;;;21.65;15.63;;;2.90;99.90;;;;;;6098847;23;20370;-82
2021/01/05 09:05:11;;;;;;;24.13;16.73;;;2.80;99.90;;;;;;6100743;23;20195;-80
2021/01/05 09:07:37;;;;;;;22.48;17.23;;;2.90;99.90;;;;;;6099944;23;20205;-81
2021/01/05 09:10:07;;;;;;;19.33;17.05;;;3.00;99.90;;;;;;6101042;23;20192;-81
2021/01/05 09:12:35;;;;;;;21.10;17.17;;;3.00;99.90;;;;;;6100948;23;20185;-81
2021/01/05 09:15:03;;;;;;;23.75;15.93;;;3.00;99.90;;;;;;6100250;23;20191;-79
2021/01/05 09:17:29;;;;;;;22.35;18.23;;;3.00;99.90;;;;;;6102829;23;20236;-80
2021/01/05 09:19:55;;;;;;;22.80;16.60;;;2.90;99.90;;;;;;6105393;23;20184;-81
2021/01/05 09:22:23;;;;;;;27.23;16.00;;;2.90;99.90;;;;;;6105531;23;20204;-80
2021/01/05 09:24:49;;;;;;;19.08;15.48;;;2.80;99.90;;;;;;6105207;23;20235;-80
2021/01/05 09:27:16;;;;;;;20.73;16.15;;;2.70;99.90;;;;;;6102497;23;20278;-80
2021/01/05 09:29:43;;;;;;;19.20;15.95;;;2.70;99.90;;;;;;6102367;23;20186;-78
2021/01/05 09:32:09;;;;;;;21.10;17.85;;;2.80;99.90;;;;;;6101399;23;20180;-82
2021/01/05 09:34:35;;;;;;;23.25;15.98;;;2.80;99.90;;;;;;6104358;23;20180;-83
2021/01/05 09:37:05;;;;;;;21.52;15.45;;;2.80;99.90;;;;;;6105490;23;20203;-81
2021/01/05 09:39:33;;;;;;;26.58;17.00;;;2.80;99.90;;;;;;6106262;23;20187;-83
2021/01/05 09:42:02;;;;;;;23.83;17.40;;;2.90;99.90;;;;;;6105768;23;20517;-82
2021/01/05 09:44:30;;;;;;;21.20;15.88;;;2.90;99.90;;;;;;6105391;23;20248;-82
2021/01/05 09:46:59;;;;;;;22.77;15.93;;;3.00;99.90;;;;;;6105575;23;20196;-83
2021/01/05 11:28:38;;;;;;;24.50;14.25;;;3.90;99.90;;;;;;6133469;23;20219;-85
2021/01/05 11:31:07;;;;;;;18.58;15.15;;;4.00;99.90;;;;;;6138367;23;20184;-86
2021/01/05 11:33:40;;;;;;;22.50;15.23;;;4.10;99.90;;;;;;6135792;23;20237;-84
2021/01/05 11:36:14;;;;;;;15.43;13.90;;;4.10;99.90;;;;;;6134451;23;20220;-83
2021/01/05 11:38:43;;;;;;;17.63;13.88;;;4.20;99.90;;;;;;6131495;23;20206;-85
2021/01/05 11:41:41;;;;;;;14.02;12.13;;;4.30;99.90;;;;;;6132477;23;20176;-86
2021/01/05 11:44:22;;;;;;;19.77;14.40;;;4.30;99.90;;;;;;6131669;23;20252;-85
2021/01/05 11:50:16;;;;;;;;;;;;;;;;;;;;;
2021/01/05 11:59:21;;;;;;;21.98;15.40;;;4.10;99.90;;;;;;5921624;24;20190;-83
2021/01/05 12:01:51;;;;;;;18.35;12.45;;;4.10;99.90;;;;;;5961052;24;20203;-83
2021/01/05 12:04:19;;;;;;;14.68;12.98;;;4.10;99.90;;;;;;6098766;23;20169;-83
2021/01/05 12:07:09;;;;;;;14.60;11.40;;;4.20;99.90;;;;;;6135998;23;20211;-84
2021/01/05 12:09:54;;;;;;;;;;;;;;;;;;;;;
2021/01/05 12:19:36;;;;;;;20.83;15.02;;;4.10;99.90;;;;;;5967401;23;20244;-85
2021/01/05 12:32:25;;;;;;;;;;;;;;;;;;;;;
2021/01/05 12:41:58;;;;;;;19.10;15.00;;;4.00;99.90;;;;;;5958149;24;20188;-83
2021/01/05 12:44:43;;;;;;;22.38;15.98;;;4.00;99.90;;;;;;6073405;23;20187;-85
2021/01/05 12:51:16;;;;;;;20.83;15.50;;;3.90;99.90;;;;;;6131662;23;20184;-86
2021/01/05 12:53:44;;;;;;;22.55;15.45;;;3.90;99.90;;;;;;6134538;23;20203;-85
2021/01/05 12:56:16;;;;;;;22.83;15.25;;;4.00;99.90;;;;;;6134639;23;20183;-82
2021/01/05 12:58:43;;;;;;;19.02;14.10;;;3.90;99.90;;;;;;6134656;23;20210;-85
2021/01/05 13:01:11;;;;;;;20.77;15.18;;;4.00;99.90;;;;;;6134385;23;20241;-86
2021/01/05 13:03:38;;;;;;;21.40;14.98;;;4.00;99.90;;;;;;6133242;23;20674;-85
2021/01/05 13:06:16;;;;;;;17.05;15.20;;;4.00;99.90;;;;;;6132934;23;20501;-85
2021/01/05 13:08:48;;;;;;;23.67;15.77;;;4.00;99.90;;;;;;6132155;23;20230;-84
2021/01/05 13:11:33;;;;;;;17.50;15.63;;;4.00;99.90;;;;;;6133271;23;20177;-85
2021/01/05 13:14:12;;;;;;;17.27;13.23;;;3.90;99.90;;;;;;6132254;23;20166;-85
2021/01/05 13:27:38;;;;;;;22.23;13.90;;;3.90;99.90;;;;;;5969132;23;20232;-83
2021/01/05 13:30:28;;;;;;;;;;;;;;;;;;;;;
2021/01/05 13:32:59;;;;;;;27.08;16.48;;;3.80;99.90;;;;;;6130113;23;20636;-85
2021/01/05 13:35:40;;;;;;;;;;;;;;;;;;;;;
2021/01/05 13:38:38;;;;;;;19.17;16.13;;;3.70;99.90;;;;;;6128271;23;20229;-84
2021/01/05 13:41:28;;;;;;;21.42;15.57;;;3.70;99.90;;;;;;6135551;23;20180;-86
2021/01/05 13:50:33;;;;;;;23.38;15.77;;;3.80;99.90;;;;;;6106099;23;20491;-86
2021/01/05 13:53:53;;;;;;;19.65;14.40;;;3.70;99.90;;;;;;6140724;23;20176;-84
2021/01/05 15:39:55;;;;;;;18.90;14.18;;;3.30;99.90;;;;;;6200141;23;20175;-83
2021/01/05 15:42:54;;;;;;;19.52;15.23;;;3.40;99.90;;;;;;6197515;23;20408;-84
2021/01/05 16:58:51;;;;;;;21.58;15.43;;;3.20;99.90;;;;;;5747053;24;20201;-84
2021/01/05 17:14:47;;;;;;;;;;;;;;;;;;;;;
2021/01/05 17:30:33;;;;;;;;;;;;;;;;;;;;;
2021/01/05 18:43:46;;;;;;;;;;;;;;;;;;;;;
2021/01/05 19:06:29;;;;;;;19.15;13.75;;;3.10;99.90;;;;;;6021001;23;20181;-84
2021/01/05 19:12:42;;;;;;;;;;;;;;;;;;;;;
2021/01/05 19:26:06;;;;;;;24.13;14.15;;;3.10;99.90;;;;;;5949518;23;20215;-84
2021/01/05 19:32:17;;;;;;;20.50;14.40;;;3.10;99.90;;;;;;5960687;24;20211;-85
2021/01/05 19:45:01;;;;;;;;;;;;;;;;;;;;;
2021/01/05 19:48:10;;;;;;;;;;;;;;;;;;;;;
2021/01/05 19:54:13;;;;;;;23.15;16.23;;;3.40;99.90;;;;;;5894231;24;20188;-86
2021/01/05 20:00:02;;;;;;;;;;;;;;;;;;;;;
2021/01/05 20:06:31;;;;;;;24.00;15.68;;;3.50;99.90;;;;;;5982472;24;20195;-85
2021/01/05 20:10:21;;;;;;;;;;;;;;;;;;;;;
2021/01/05 20:20:00;;;;;;;;;;;;;;;;;;;;;
2021/01/05 20:26:34;;;;;;;;;;;;;;;;;;;;;
2021/01/05 20:36:29;;;;;;;;;;;;;;;;;;;;;
2021/01/05 20:42:46;;;;;;;19.58;14.27;;;3.40;99.90;;;;;;6060017;23;20177;-85
2021/01/05 20:49:19;;;;;;;22.00;16.85;;;3.50;99.90;;;;;;6058622;23;20248;-85
2021/01/05 20:55:09;;;;;;;21.83;16.30;;;3.50;99.90;;;;;;6104058;23;20168;-84
2021/01/05 20:58:13;;;;;;;18.60;14.10;;;3.50;99.90;;;;;;6106545;23;20701;-85
2021/01/05 21:00:51;;;;;;;26.52;18.75;;;3.50;99.90;;;;;;6106251;23;20199;-84
2021/01/05 21:03:35;;;;;;;27.17;17.27;;;3.40;99.90;;;;;;6105654;23;20700;-85
2021/01/05 21:12:31;;;;;;;21.60;16.75;;;3.60;99.90;;;;;;6056771;23;20186;-85
2021/01/05 21:15:17;;;;;;;24.20;18.90;;;3.40;99.90;;;;;;5998463;23;20183;-85
2021/01/05 21:18:12;;;;;;;;;;;;;;;;;;;;;
2021/01/05 21:26:48;;;;;;;;;;;;;;;;;;;;;
2021/01/05 21:29:30;;;;;;;27.88;18.70;;;3.30;99.90;;;;;;6078522;23;20216;-85
2021/01/05 23:51:36;;;;;;;;;;;;;;;;;;;;;
